Time;durP1;ratioP1;P1;durP2;ratioP2;P2;SDS_P1;SDS_P2;PMS_P1;PMS_P2;Temp;Humidity;BMP_temperature;BMP_pressure;BME280_temperature;BME280_humidity;BME280_pressure;Samples;Min_cycle;Max_cycle;Signal;HPM_P1;HPM_P2
2023/12/04 00:01:01;;;;;;;33.30;18.23;;;;;;;;;;4982475;28;20873;-83
2023/12/04 00:03:29;;;;;;;31.95;17.35;;;;;;;;;;4983149;28;20520;-85
2023/12/04 00:05:56;;;;;;;35.78;18.02;;;;;;;;;;4988361;28;20212;-83
2023/12/04 00:08:22;;;;;;;32.65;17.55;;;;;;;;;;4986070;28;20300;-82
2023/12/04 00:10:49;;;;;;;35.30;21.00;;;;;;;;;;4983326;28;20704;-84
2023/12/04 00:13:15;;;;;;;35.50;18.05;;;;;;;;;;4983622;28;20328;-83
2023/12/04 00:15:41;;;;;;;28.15;16.52;;;;;;;;;;4983266;28;20241;-83
2023/12/04 00:18:08;;;;;;;35.55;19.38;;;;;;;;;;4983269;28;20285;-84
2023/12/04 00:20:36;;;;;;;28.40;16.25;;;;;;;;;;4982705;28;20328;-83
2023/12/04 00:23:03;;;;;;;34.17;17.55;;;;;;;;;;4984167;28;20229;-82
2023/12/04 00:25:29;;;;;;;32.50;16.52;;;;;;;;;;4983124;28;20309;-82
2023/12/04 00:27:55;;;;;;;33.45;17.08;;;;;;;;;;4992881;28;20205;-83
2023/12/04 00:30:22;;;;;;;25.25;15.52;;;;;;;;;;4983083;28;20223;-84
2023/12/04 00:32:48;;;;;;;34.92;19.23;;;;;;;;;;4983346;28;20233;-83
2023/12/04 00:35:15;;;;;;;34.28;19.25;;;;;;;;;;4983261;28;20308;-84
2023/12/04 00:37:42;;;;;;;30.42;16.67;;;;;;;;;;4981900;28;20386;-83
2023/12/04 00:40:09;;;;;;;36.25;18.60;;;;;;;;;;4982786;28;20209;-84
2023/12/04 00:42:36;;;;;;;32.67;17.10;;;;;;;;;;4983140;28;20244;-82
2023/12/04 00:45:03;;;;;;;30.08;17.70;;;;;;;;;;4983082;28;20217;-83
2023/12/04 00:47:29;;;;;;;35.17;17.63;;;;;;;;;;4983059;28;20296;-82
2023/12/04 00:49:56;;;;;;;32.35;16.02;;;;;;;;;;4983057;28;20300;-82
2023/12/04 00:52:22;;;;;;;29.75;16.98;;;;;;;;;;4982600;28;20289;-83
2023/12/04 00:54:50;;;;;;;36.25;17.08;;;;;;;;;;4983081;28;20273;-82
2023/12/04 00:57:17;;;;;;;29.48;15.93;;;;;;;;;;4982498;28;20289;-82
2023/12/04 00:59:43;;;;;;;35.42;16.60;;;;;;;;;;4983140;28;20240;-83
2023/12/04 01:02:09;;;;;;;27.98;15.55;;;;;;;;;;4982394;28;20260;-82
2023/12/04 01:04:36;;;;;;;37.17;16.77;;;;;;;;;;4982379;28;20795;-82
2023/12/04 01:07:02;;;;;;;29.35;15.20;;;;;;;;;;4982137;28;20285;-81
2023/12/04 01:09:29;;;;;;;36.22;14.90;;;;;;;;;;4982420;28;20240;-83
2023/12/04 01:11:57;;;;;;;33.25;15.90;;;;;;;;;;4981531;28;20225;-83
2023/12/04 01:14:23;;;;;;;25.92;14.20;;;;;;;;;;4982356;28;20244;-84
2023/12/04 01:16:49;;;;;;;29.50;15.63;;;;;;;;;;4982333;28;20247;-83
2023/12/04 01:19:16;;;;;;;28.67;16.02;;;;;;;;;;4981796;28;20248;-83
2023/12/04 01:21:42;;;;;;;30.08;17.63;;;;;;;;;;4981793;28;20256;-83
2023/12/04 01:24:09;;;;;;;27.85;15.93;;;;;;;;;;4986602;28;20646;-84
2023/12/04 01:26:35;;;;;;;30.42;15.82;;;;;;;;;;4982166;28;20249;-83
2023/12/04 01:29:03;;;;;;;37.85;17.13;;;;;;;;;;4982248;28;20232;-84
2023/12/04 01:31:29;;;;;;;34.60;18.30;;;;;;;;;;4981778;28;20741;-82
2023/12/04 01:34:06;;;;;;;35.83;18.08;;;;;;;;;;5152070;27;21026;-81
2023/12/04 01:36:33;;;;;;;28.13;15.75;;;;;;;;;;5150534;27;20237;-81
2023/12/04 01:39:00;;;;;;;38.55;17.63;;;;;;;;;;5150566;27;20609;-81
2023/12/04 01:41:26;;;;;;;29.70;14.68;;;;;;;;;;5150430;27;20210;-80
2023/12/04 01:43:53;;;;;;;31.70;16.95;;;;;;;;;;5155530;27;20203;-81
2023/12/04 01:46:21;;;;;;;31.42;14.82;;;;;;;;;;5154518;27;20268;-81
2023/12/04 01:48:47;;;;;;;32.38;16.05;;;;;;;;;;5149398;27;20217;-81
2023/12/04 01:51:16;;;;;;;28.52;16.05;;;;;;;;;;5144968;27;20237;-81
2023/12/04 01:53:43;;;;;;;34.60;17.60;;;;;;;;;;5149606;27;20250;-81
2023/12/04 01:56:10;;;;;;;27.95;17.40;;;;;;;;;;5154654;27;20266;-81
2023/12/04 01:58:38;;;;;;;27.53;17.57;;;;;;;;;;5157433;27;20233;-81
2023/12/04 02:01:05;;;;;;;29.17;15.73;;;;;;;;;;5153742;27;20453;-81
2023/12/04 02:03:31;;;;;;;32.00;19.13;;;;;;;;;;5157341;27;20225;-80
2023/12/04 02:06:00;;;;;;;29.00;15.20;;;;;;;;;;5148873;27;20624;-80
2023/12/04 02:08:28;;;;;;;31.17;16.15;;;;;;;;;;5152881;27;20238;-80
2023/12/04 02:10:55;;;;;;;32.67;15.57;;;;;;;;;;5144604;27;20236;-81
2023/12/04 02:13:22;;;;;;;32.35;16.15;;;;;;;;;;5157299;27;20235;-81
2023/12/04 02:15:50;;;;;;;30.97;16.40;;;;;;;;;;5156867;27;20221;-81
2023/12/04 02:18:18;;;;;;;28.92;14.85;;;;;;;;;;5150919;27;20456;-81
2023/12/04 02:20:44;;;;;;;26.73;15.07;;;;;;;;;;5154942;27;20252;-81
2023/12/04 02:23:11;;;;;;;35.92;16.92;;;;;;;;;;5151507;27;20282;-81
2023/12/04 02:25:39;;;;;;;32.30;15.43;;;;;;;;;;5151651;27;20206;-80
2023/12/04 02:28:07;;;;;;;38.88;18.50;;;;;;;;;;5149215;27;20456;-80
2023/12/04 02:30:36;;;;;;;37.92;17.98;;;;;;;;;;5156048;27;20290;-80
2023/12/04 02:33:04;;;;;;;35.92;17.25;;;;;;;;;;5150213;27;20300;-80
2023/12/04 02:35:32;;;;;;;30.40;15.05;;;;;;;;;;5155005;27;20203;-80
2023/12/04 02:37:59;;;;;;;30.88;16.23;;;;;;;;;;5154921;27;20240;-80
2023/12/04 02:40:26;;;;;;;34.95;16.95;;;;;;;;;;5154044;27;20630;-80
2023/12/04 02:42:54;;;;;;;29.42;14.68;;;;;;;;;;5148678;27;20207;-80
2023/12/04 02:45:21;;;;;;;31.70;16.58;;;;;;;;;;5141372;27;20710;-80
2023/12/04 02:47:48;;;;;;;32.33;16.85;;;;;;;;;;5139901;27;20321;-81
2023/12/04 02:50:14;;;;;;;39.42;20.45;;;;;;;;;;5143537;27;20208;-80
2023/12/04 02:52:41;;;;;;;33.08;16.33;;;;;;;;;;5142534;27;20223;-80
2023/12/04 02:55:08;;;;;;;29.65;16.63;;;;;;;;;;5139549;27;20240;-80
2023/12/04 02:57:35;;;;;;;34.38;19.33;;;;;;;;;;5142510;27;20204;-81
2023/12/04 03:00:04;;;;;;;33.53;16.83;;;;;;;;;;5137806;27;20656;-80
2023/12/04 03:02:31;;;;;;;28.23;17.95;;;;;;;;;;5144032;27;20272;-81
2023/12/04 03:04:57;;;;;;;31.23;18.67;;;;;;;;;;5144655;27;20200;-80
2023/12/04 03:07:24;;;;;;;32.55;16.80;;;;;;;;;;5143597;27;20208;-80
2023/12/04 03:09:51;;;;;;;31.55;16.02;;;;;;;;;;5139028;27;20200;-80
2023/12/04 03:12:17;;;;;;;31.90;16.63;;;;;;;;;;5141802;27;20215;-80
2023/12/04 03:14:44;;;;;;;33.72;17.08;;;;;;;;;;5138940;27;20183;-80
2023/12/04 03:17:12;;;;;;;31.20;17.73;;;;;;;;;;5139894;27;20241;-81
2023/12/04 03:19:38;;;;;;;31.37;16.00;;;;;;;;;;5136736;27;20747;-81
2023/12/04 03:22:05;;;;;;;35.25;15.90;;;;;;;;;;5138914;27;20449;-80
2023/12/04 03:24:32;;;;;;;31.85;16.98;;;;;;;;;;5132702;27;20197;-80
2023/12/04 03:26:58;;;;;;;31.65;16.95;;;;;;;;;;5142339;27;20214;-81
2023/12/04 03:29:25;;;;;;;30.73;17.20;;;;;;;;;;5146002;27;20213;-81
2023/12/04 03:31:52;;;;;;;26.30;16.57;;;;;;;;;;5147987;27;21284;-81
2023/12/04 03:34:20;;;;;;;31.25;16.30;;;;;;;;;;5143047;27;20487;-81
2023/12/04 03:36:46;;;;;;;22.53;15.67;;;;;;;;;;5143907;27;21055;-80
2023/12/04 03:39:13;;;;;;;28.45;18.20;;;;;;;;;;5146653;27;20510;-80
2023/12/04 03:41:40;;;;;;;28.77;17.20;;;;;;;;;;5141704;27;20217;-80
2023/12/04 03:44:06;;;;;;;22.10;15.10;;;;;;;;;;5142183;27;20667;-80
2023/12/04 03:46:33;;;;;;;23.67;15.63;;;;;;;;;;5135001;27;20446;-80
2023/12/04 03:49:00;;;;;;;26.35;14.82;;;;;;;;;;5134629;27;20446;-81
2023/12/04 03:51:28;;;;;;;30.20;16.02;;;;;;;;;;5138860;27;20235;-81
2023/12/04 03:53:54;;;;;;;22.27;14.82;;;;;;;;;;5134925;27;20228;-81
2023/12/04 03:56:21;;;;;;;23.60;15.82;;;;;;;;;;5128336;27;20220;-80
2023/12/04 03:58:47;;;;;;;23.38;15.23;;;;;;;;;;5132062;27;20242;-81
2023/12/04 04:01:14;;;;;;;21.27;15.23;;;;;;;;;;5129597;27;20205;-81
2023/12/04 04:03:42;;;;;;;19.23;13.70;;;;;;;;;;5136421;27;20465;-81
2023/12/04 04:06:09;;;;;;;23.92;14.35;;;;;;;;;;5146875;27;20457;-81
2023/12/04 04:08:37;;;;;;;19.63;13.20;;;;;;;;;;5136886;27;20216;-81
2023/12/04 04:11:04;;;;;;;20.90;13.70;;;;;;;;;;5140040;27;20200;-81
2023/12/04 04:13:31;;;;;;;21.10;14.30;;;;;;;;;;5130400;27;20498;-81
2023/12/04 04:15:57;;;;;;;16.13;12.75;;;;;;;;;;5124301;27;20519;-81
2023/12/04 04:18:24;;;;;;;25.73;15.40;;;;;;;;;;5137980;27;20212;-81
2023/12/04 04:20:50;;;;;;;21.33;13.73;;;;;;;;;;5124318;27;20527;-82
2023/12/04 04:23:17;;;;;;;19.10;13.70;;;;;;;;;;5132647;27;20474;-82
2023/12/04 04:25:45;;;;;;;21.70;14.02;;;;;;;;;;5137500;27;21086;-80
2023/12/04 04:28:12;;;;;;;18.23;12.35;;;;;;;;;;5140079;27;20204;-81
2023/12/04 04:30:39;;;;;;;22.53;14.20;;;;;;;;;;5141374;27;20242;-81
2023/12/04 04:33:06;;;;;;;18.50;12.95;;;;;;;;;;5137349;27;20588;-80
2023/12/04 04:35:33;;;;;;;22.17;15.30;;;;;;;;;;5138195;27;20215;-81
2023/12/04 04:37:59;;;;;;;18.08;12.73;;;;;;;;;;5136554;27;20204;-81
2023/12/04 04:40:26;;;;;;;20.33;13.73;;;;;;;;;;5141060;27;20252;-81
2023/12/04 04:42:54;;;;;;;17.80;11.83;;;;;;;;;;5134001;27;20469;-81
2023/12/04 04:45:21;;;;;;;18.67;13.43;;;;;;;;;;5138157;27;20426;-81
2023/12/04 04:47:47;;;;;;;16.70;13.53;;;;;;;;;;5133561;27;20454;-81
2023/12/04 04:50:14;;;;;;;16.73;13.33;;;;;;;;;;5135611;27;20441;-82
2023/12/04 04:52:41;;;;;;;15.90;12.33;;;;;;;;;;5136368;27;20520;-81
2023/12/04 04:55:08;;;;;;;18.40;13.33;;;;;;;;;;5135725;27;20694;-80
2023/12/04 04:57:34;;;;;;;16.57;13.33;;;;;;;;;;5134865;27;20490;-81
2023/12/04 05:00:02;;;;;;;17.33;13.05;;;;;;;;;;5134223;27;20463;-81
2023/12/04 05:02:29;;;;;;;15.60;12.13;;;;;;;;;;5136301;27;20211;-80
2023/12/04 05:04:55;;;;;;;15.33;12.47;;;;;;;;;;5126937;27;20806;-80
2023/12/04 05:07:21;;;;;;;16.93;12.43;;;;;;;;;;5135365;27;20461;-81
2023/12/04 05:09:48;;;;;;;15.07;13.50;;;;;;;;;;5130202;27;20478;-80
2023/12/04 05:12:15;;;;;;;14.73;12.40;;;;;;;;;;5130293;27;20458;-81
2023/12/04 05:14:42;;;;;;;15.13;13.13;;;;;;;;;;5128540;27;20494;-81
2023/12/04 05:17:09;;;;;;;15.03;10.50;;;;;;;;;;5134498;27;20266;-80
2023/12/04 05:19:36;;;;;;;14.07;12.07;;;;;;;;;;5137127;27;20449;-80
2023/12/04 05:22:03;;;;;;;13.88;12.38;;;;;;;;;;5134645;27;20524;-80
2023/12/04 05:24:29;;;;;;;16.00;12.00;;;;;;;;;;5129492;27;20218;-80
2023/12/04 05:26:56;;;;;;;14.50;11.73;;;;;;;;;;5136349;27;20457;-81
2023/12/04 05:29:23;;;;;;;18.00;12.23;;;;;;;;;;5129858;27;20457;-80
2023/12/04 05:31:49;;;;;;;15.53;11.03;;;;;;;;;;5131462;28;20655;-81
2023/12/04 05:34:20;;;;;;;16.23;12.73;;;;;;;;;;5125513;28;20477;-81
2023/12/04 05:36:47;;;;;;;18.70;12.27;;;;;;;;;;5128604;28;20838;-80
2023/12/04 05:39:13;;;;;;;13.97;11.80;;;;;;;;;;5129141;28;20479;-80
2023/12/04 05:41:40;;;;;;;16.10;12.70;;;;;;;;;;5135731;28;20449;-80
2023/12/04 05:44:06;;;;;;;12.90;10.73;;;;;;;;;;5134870;28;20511;-81
2023/12/04 05:46:33;;;;;;;16.40;14.80;;;;;;;;;;5129726;28;20599;-80
2023/12/04 05:48:59;;;;;;;17.17;15.47;;;;;;;;;;5129249;28;20443;-80
2023/12/04 05:51:27;;;;;;;15.50;14.00;;;;;;;;;;5134269;27;20484;-80
2023/12/04 05:53:54;;;;;;;14.57;12.60;;;;;;;;;;5125662;28;20513;-80
2023/12/04 05:56:20;;;;;;;14.53;12.80;;;;;;;;;;5126625;28;20477;-80
2023/12/04 05:58:47;;;;;;;14.73;12.80;;;;;;;;;;5131412;28;20480;-80
2023/12/04 06:01:15;;;;;;;14.50;13.00;;;;;;;;;;5132599;28;21199;-80
2023/12/04 06:03:41;;;;;;;18.07;11.97;;;;;;;;;;5129806;28;20445;-80
2023/12/04 06:06:08;;;;;;;16.40;12.80;;;;;;;;;;5132068;28;20484;-80
2023/12/04 06:08:36;;;;;;;12.83;11.50;;;;;;;;;;5119662;28;20502;-81
2023/12/04 06:11:03;;;;;;;14.43;11.30;;;;;;;;;;5110943;28;20469;-81
2023/12/04 06:13:30;;;;;;;13.47;11.73;;;;;;;;;;5122945;28;20575;-80
2023/12/04 06:15:56;;;;;;;13.93;11.13;;;;;;;;;;5117453;28;21239;-82
2023/12/04 06:18:23;;;;;;;14.40;12.43;;;;;;;;;;5118343;28;20462;-83
2023/12/04 06:20:49;;;;;;;13.80;11.60;;;;;;;;;;5116130;28;20527;-82
2023/12/04 06:23:17;;;;;;;13.47;11.90;;;;;;;;;;5113312;28;20470;-82
2023/12/04 06:25:46;;;;;;;14.13;12.03;;;;;;;;;;5119249;28;20450;-83
2023/12/04 06:28:12;;;;;;;15.03;10.60;;;;;;;;;;5118912;28;20503;-82
2023/12/04 06:30:39;;;;;;;15.63;11.83;;;;;;;;;;5121346;27;20460;-82
2023/12/04 06:33:06;;;;;;;13.43;11.80;;;;;;;;;;5117896;28;20494;-82
2023/12/04 06:35:33;;;;;;;14.23;11.57;;;;;;;;;;5110295;28;20486;-82
2023/12/04 06:38:01;;;;;;;12.57;11.37;;;;;;;;;;5114857;28;20462;-83
2023/12/04 06:40:27;;;;;;;12.80;11.50;;;;;;;;;;5114012;28;20471;-82
2023/12/04 06:42:56;;;;;;;15.30;12.40;;;;;;;;;;5110234;28;20462;-82
2023/12/04 06:45:22;;;;;;;13.53;11.90;;;;;;;;;;5118814;28;20477;-82
2023/12/04 06:47:50;;;;;;;13.97;12.60;;;;;;;;;;5110112;28;20489;-83
2023/12/04 06:50:16;;;;;;;13.30;10.87;;;;;;;;;;5111534;28;20489;-82
2023/12/04 06:52:43;;;;;;;14.03;12.33;;;;;;;;;;5115234;28;20489;-82
2023/12/04 06:55:09;;;;;;;14.30;12.33;;;;;;;;;;5116725;28;20481;-82
2023/12/04 06:57:36;;;;;;;12.47;11.27;;;;;;;;;;5119316;28;20489;-83
2023/12/04 07:00:04;;;;;;;15.20;13.60;;;;;;;;;;5117499;28;20446;-83
2023/12/04 07:02:31;;;;;;;12.93;11.60;;;;;;;;;;5110767;28;20541;-82
2023/12/04 07:04:57;;;;;;;14.43;12.57;;;;;;;;;;5117956;28;20458;-83
2023/12/04 07:07:24;;;;;;;15.17;12.70;;;;;;;;;;5112522;28;20520;-83
2023/12/04 07:09:50;;;;;;;12.67;11.27;;;;;;;;;;5107091;28;20455;-83
2023/12/04 07:12:17;;;;;;;16.03;12.93;;;;;;;;;;5104787;28;20459;-83
2023/12/04 07:14:43;;;;;;;14.07;12.57;;;;;;;;;;5106730;28;20505;-83
2023/12/04 07:17:11;;;;;;;13.67;11.90;;;;;;;;;;5112714;28;21061;-83
2023/12/04 07:19:38;;;;;;;13.77;11.67;;;;;;;;;;5101870;28;20469;-84
2023/12/04 07:22:04;;;;;;;17.07;12.30;;;;;;;;;;5104918;28;20459;-82
2023/12/04 07:24:31;;;;;;;12.40;11.20;;;;;;;;;;5113152;28;20458;-84
2023/12/04 07:26:57;;;;;;;13.83;12.10;;;;;;;;;;5112387;28;20789;-84
2023/12/04 07:29:24;;;;;;;17.40;12.20;;;;;;;;;;5108177;28;20538;-83
2023/12/04 07:31:50;;;;;;;13.90;12.50;;;;;;;;;;5117844;28;20973;-84
2023/12/04 07:34:18;;;;;;;12.80;11.50;;;;;;;;;;5107152;28;20502;-83
2023/12/04 07:36:45;;;;;;;14.60;12.70;;;;;;;;;;5110034;28;20446;-84
2023/12/04 07:39:11;;;;;;;13.77;12.30;;;;;;;;;;5111613;28;20554;-83
2023/12/04 07:41:38;;;;;;;13.10;11.90;;;;;;;;;;5107785;28;20759;-84
2023/12/04 07:44:05;;;;;;;13.90;12.00;;;;;;;;;;5118163;28;20472;-83
2023/12/04 07:46:31;;;;;;;15.43;13.77;;;;;;;;;;5117881;28;20491;-83
2023/12/04 07:48:57;;;;;;;13.37;12.00;;;;;;;;;;5112763;28;20477;-83
2023/12/04 07:51:25;;;;;;;14.13;11.83;;;;;;;;;;5114887;28;21016;-82
2023/12/04 07:53:52;;;;;;;13.27;11.67;;;;;;;;;;5112747;28;21229;-83
2023/12/04 07:56:19;;;;;;;13.23;12.03;;;;;;;;;;5117579;28;20461;-82
2023/12/04 07:58:45;;;;;;;12.70;11.50;;;;;;;;;;5113396;28;20872;-82
2023/12/04 08:01:11;;;;;;;11.30;10.30;;;;;;;;;;5114551;28;20504;-83
2023/12/04 08:03:38;;;;;;;12.80;11.40;;;;;;;;;;5108582;28;20511;-82
2023/12/04 08:06:05;;;;;;;13.97;11.10;;;;;;;;;;5113509;28;20447;-82
2023/12/04 08:08:34;;;;;;;12.70;11.33;;;;;;;;;;5115525;28;20462;-81
2023/12/04 08:11:00;;;;;;;15.23;13.50;;;;;;;;;;5112840;28;20466;-82
2023/12/04 08:13:27;;;;;;;11.70;10.57;;;;;;;;;;5116308;28;20468;-83
2023/12/04 08:15:53;;;;;;;12.87;11.57;;;;;;;;;;5102758;28;20727;-83
2023/12/04 08:18:20;;;;;;;11.77;10.57;;;;;;;;;;5113533;28;20481;-82
2023/12/04 08:20:46;;;;;;;13.40;11.73;;;;;;;;;;5106509;28;20493;-82
2023/12/04 08:23:13;;;;;;;13.47;11.97;;;;;;;;;;5110670;28;20481;-83
2023/12/04 08:25:41;;;;;;;14.90;11.97;;;;;;;;;;5111677;28;20435;-82
2023/12/04 08:28:08;;;;;;;12.13;10.93;;;;;;;;;;5106950;28;20902;-82
2023/12/04 08:30:35;;;;;;;13.60;12.07;;;;;;;;;;5103090;28;20458;-82
2023/12/04 08:33:01;;;;;;;11.97;10.70;;;;;;;;;;5106204;28;20973;-83
2023/12/04 08:35:28;;;;;;;12.30;11.10;;;;;;;;;;5108100;28;20511;-82
2023/12/04 08:37:54;;;;;;;13.37;12.17;;;;;;;;;;5112186;28;20502;-81
2023/12/04 08:40:21;;;;;;;14.63;11.17;;;;;;;;;;5105358;28;21009;-82
2023/12/04 08:42:49;;;;;;;13.90;11.10;;;;;;;;;;5100573;27;20468;-82
2023/12/04 08:45:14;;;;;;;17.23;15.43;;;;;;;;;;5110788;28;20458;-81
2023/12/04 08:47:41;;;;;;;17.07;15.37;;;;;;;;;;5116453;27;20454;-83
2023/12/04 08:50:08;;;;;;;12.70;11.60;;;;;;;;;;5105924;28;20213;-82
2023/12/04 08:52:35;;;;;;;11.40;10.10;;;;;;;;;;5106820;28;20518;-83
2023/12/04 08:55:02;;;;;;;14.63;12.77;;;;;;;;;;5106619;28;20516;-82
2023/12/04 08:57:29;;;;;;;16.40;12.70;;;;;;;;;;5112562;28;20522;-81
2023/12/04 08:59:57;;;;;;;13.73;12.30;;;;;;;;;;5113586;28;20885;-82
2023/12/04 09:02:23;;;;;;;13.67;12.27;;;;;;;;;;5112759;28;20454;-82
2023/12/04 09:04:50;;;;;;;13.07;11.87;;;;;;;;;;5105555;28;20440;-82
2023/12/04 09:07:17;;;;;;;13.10;11.87;;;;;;;;;;5109891;28;20483;-83
2023/12/04 09:09:43;;;;;;;13.73;12.27;;;;;;;;;;5113055;28;20474;-81
2023/12/04 09:12:10;;;;;;;14.27;12.90;;;;;;;;;;5111464;28;20481;-82
2023/12/04 09:14:37;;;;;;;17.50;12.87;;;;;;;;;;5116655;28;20478;-81
2023/12/04 09:17:05;;;;;;;16.07;12.40;;;;;;;;;;5115705;28;20507;-83
2023/12/04 09:19:31;;;;;;;15.17;13.57;;;;;;;;;;5111568;28;20447;-83
2023/12/04 09:21:58;;;;;;;13.80;12.33;;;;;;;;;;5114548;28;20488;-83
2023/12/04 09:24:24;;;;;;;13.90;12.47;;;;;;;;;;5109779;28;20537;-83
2023/12/04 09:26:51;;;;;;;17.00;13.20;;;;;;;;;;5106417;28;20492;-82
2023/12/04 09:29:18;;;;;;;16.57;12.93;;;;;;;;;;5115713;28;20454;-82
2023/12/04 09:31:45;;;;;;;14.17;12.20;;;;;;;;;;5106097;28;20470;-83
2023/12/04 09:34:12;;;;;;;15.73;12.47;;;;;;;;;;5106556;28;20450;-83
2023/12/04 09:36:39;;;;;;;14.30;12.80;;;;;;;;;;5113803;28;20462;-82
2023/12/04 09:39:05;;;;;;;13.80;12.37;;;;;;;;;;5115131;28;20462;-83
2023/12/04 09:41:32;;;;;;;16.80;13.33;;;;;;;;;;5111298;28;20451;-82
2023/12/04 09:43:59;;;;;;;12.50;11.33;;;;;;;;;;5114170;28;20453;-82
2023/12/04 09:46:26;;;;;;;16.47;13.77;;;;;;;;;;5104466;28;20493;-82
2023/12/04 09:48:53;;;;;;;13.67;12.13;;;;;;;;;;5110543;28;20467;-82
2023/12/04 09:51:21;;;;;;;12.40;11.10;;;;;;;;;;5105545;28;20459;-80
2023/12/04 09:53:48;;;;;;;12.03;10.83;;;;;;;;;;5110982;28;20479;-82
2023/12/04 09:56:16;;;;;;;11.70;10.50;;;;;;;;;;5117317;28;20498;-82
2023/12/04 09:58:44;;;;;;;12.03;10.93;;;;;;;;;;5116950;28;20462;-83
2023/12/04 10:01:11;;;;;;;11.83;10.73;;;;;;;;;;5120777;28;20918;-82
2023/12/04 10:03:37;;;;;;;13.27;10.70;;;;;;;;;;5112849;28;20943;-82
2023/12/04 10:06:05;;;;;;;11.90;10.80;;;;;;;;;;5116067;28;20964;-82
2023/12/04 10:08:33;;;;;;;11.90;10.80;;;;;;;;;;5108315;28;20477;-82
2023/12/04 10:11:01;;;;;;;13.13;11.93;;;;;;;;;;5118506;28;20478;-82
2023/12/04 10:13:28;;;;;;;12.23;11.10;;;;;;;;;;5108798;28;20830;-81
2023/12/04 10:15:54;;;;;;;12.17;11.07;;;;;;;;;;5117866;28;20481;-81
2023/12/04 10:18:27;;;;;;;13.57;12.37;;;;;;;;;;5117004;28;20442;-82
2023/12/04 10:20:55;;;;;;;12.07;10.87;;;;;;;;;;5107113;28;20481;-82
2023/12/04 10:23:21;;;;;;;12.00;10.97;;;;;;;;;;5105519;28;20466;-83
2023/12/04 10:25:51;;;;;;;13.07;11.97;;;;;;;;;;5108591;28;20455;-83
2023/12/04 10:28:18;;;;;;;11.87;10.77;;;;;;;;;;5119180;28;20472;-82
2023/12/04 10:30:44;;;;;;;11.87;10.77;;;;;;;;;;5112567;28;20899;-82
2023/12/04 10:33:14;;;;;;;13.50;12.30;;;;;;;;;;5105436;28;20524;-83
2023/12/04 10:35:41;;;;;;;11.93;10.93;;;;;;;;;;5113323;28;20543;-83
2023/12/04 10:38:08;;;;;;;12.77;11.57;;;;;;;;;;5110936;28;20477;-82
2023/12/04 10:40:36;;;;;;;12.60;11.40;;;;;;;;;;5118005;28;20454;-83
2023/12/04 10:43:12;;;;;;;13.33;11.93;;;;;;;;;;5117956;28;20533;-83
2023/12/04 10:45:40;;;;;;;13.17;12.07;;;;;;;;;;5118486;28;20456;-84
2023/12/04 10:48:07;;;;;;;12.80;11.60;;;;;;;;;;5114231;28;20461;-84
2023/12/04 10:50:34;;;;;;;12.40;11.30;;;;;;;;;;5114543;28;20521;-83
2023/12/04 10:53:04;;;;;;;12.77;11.60;;;;;;;;;;5119039;28;20523;-84
2023/12/04 10:55:30;;;;;;;11.67;10.67;;;;;;;;;;5117972;28;20826;-83
2023/12/04 10:57:57;;;;;;;12.70;11.60;;;;;;;;;;5114080;28;20458;-84
2023/12/04 11:00:25;;;;;;;11.30;10.37;;;;;;;;;;5112074;28;20458;-83
2023/12/04 11:02:55;;;;;;;11.97;10.87;;;;;;;;;;5117703;28;20535;-83
2023/12/04 11:05:24;;;;;;;11.70;10.47;;;;;;;;;;5114924;28;20949;-81
2023/12/04 11:07:53;;;;;;;11.30;10.30;;;;;;;;;;5116931;28;20517;-82
2023/12/04 11:10:22;;;;;;;11.33;10.30;;;;;;;;;;5116923;28;20484;-83
2023/12/04 11:12:50;;;;;;;11.90;10.70;;;;;;;;;;5110386;28;20462;-81
2023/12/04 11:15:18;;;;;;;10.47;9.47;;;;;;;;;;5102536;28;21022;-81
2023/12/04 11:17:50;;;;;;;16.40;15.00;;;;;;;;;;5109887;28;20609;-81
2023/12/04 11:20:18;;;;;;;16.10;14.90;;;;;;;;;;5108092;28;20482;-82
2023/12/04 11:22:46;;;;;;;18.13;16.83;;;;;;;;;;5106439;28;20854;-81
2023/12/04 11:25:14;;;;;;;17.60;16.20;;;;;;;;;;5108002;28;20482;-80
2023/12/04 11:27:41;;;;;;;17.23;15.77;;;;;;;;;;5111982;27;20459;-82
2023/12/04 11:30:08;;;;;;;16.73;15.43;;;;;;;;;;5113461;28;20497;-82
2023/12/04 11:32:44;;;;;;;16.27;15.13;;;;;;;;;;5108507;28;20494;-82
2023/12/04 11:35:17;;;;;;;18.17;16.80;;;;;;;;;;5112679;27;20466;-84
2023/12/04 11:37:44;;;;;;;16.30;15.30;;;;;;;;;;5099756;28;20483;-84
2023/12/04 11:40:12;;;;;;;16.17;14.87;;;;;;;;;;5118569;28;20454;-82
2023/12/04 11:42:39;;;;;;;17.50;16.27;;;;;;;;;;5111329;28;20454;-84
2023/12/04 11:45:06;;;;;;;16.13;15.03;;;;;;;;;;5108814;28;20454;-82
2023/12/04 11:47:49;;;;;;;16.00;14.90;;;;;;;;;;5116106;28;20488;-83
2023/12/04 11:50:18;;;;;;;16.33;14.93;;;;;;;;;;5114863;28;20450;-84
2023/12/04 11:52:45;;;;;;;16.33;15.00;;;;;;;;;;5117039;28;20485;-84
2023/12/04 11:55:11;;;;;;;16.80;15.43;;;;;;;;;;5116684;28;20935;-83
2023/12/04 11:57:38;;;;;;;15.17;14.07;;;;;;;;;;5115750;28;20485;-83
2023/12/04 12:00:09;;;;;;;15.77;14.57;;;;;;;;;;5110039;28;20461;-83
2023/12/04 12:02:36;;;;;;;15.67;14.37;;;;;;;;;;5117468;28;20478;-81
2023/12/04 12:05:03;;;;;;;15.53;14.33;;;;;;;;;;5116579;28;20434;-82
2023/12/04 12:07:30;;;;;;;16.10;14.70;;;;;;;;;;5110749;28;20458;-81
2023/12/04 12:09:57;;;;;;;16.00;14.63;;;;;;;;;;5109762;28;20466;-83
2023/12/04 12:12:23;;;;;;;16.23;15.03;;;;;;;;;;5118812;28;20519;-83
2023/12/04 12:14:50;;;;;;;15.80;14.50;;;;;;;;;;5114583;28;20519;-82
2023/12/04 12:17:16;;;;;;;15.63;14.43;;;;;;;;;;5116840;28;20478;-81
2023/12/04 12:19:43;;;;;;;15.70;14.57;;;;;;;;;;5116748;28;20900;-82
2023/12/04 12:22:10;;;;;;;17.70;16.30;;;;;;;;;;5120392;28;20466;-84
2023/12/04 12:24:38;;;;;;;15.40;14.40;;;;;;;;;;5118951;28;20462;-83
2023/12/04 12:27:05;;;;;;;16.90;15.70;;;;;;;;;;5120875;28;20453;-84
2023/12/04 12:29:32;;;;;;;18.50;17.00;;;;;;;;;;5114243;28;20725;-84
2023/12/04 12:31:58;;;;;;;17.60;16.20;;;;;;;;;;5117299;27;20475;-83
2023/12/04 12:34:24;;;;;;;11.40;10.30;;;;;;;;;;5115769;28;20486;-83
2023/12/04 12:36:51;;;;;;;11.27;10.43;;;;;;;;;;5117370;28;20474;-83
2023/12/04 12:39:19;;;;;;;9.50;8.53;;;;;;;;;;5107679;28;20446;-83
2023/12/04 12:41:49;;;;;;;16.07;14.67;;;;;;;;;;5112170;28;20462;-83
2023/12/04 12:44:16;;;;;;;17.73;16.50;;;;;;;;;;5111931;28;20554;-83
2023/12/04 12:46:42;;;;;;;18.23;16.80;;;;;;;;;;5114779;28;20461;-83
2023/12/04 12:49:09;;;;;;;19.10;17.60;;;;;;;;;;5110528;28;20789;-83
2023/12/04 12:51:36;;;;;;;18.77;17.30;;;;;;;;;;5111766;28;20518;-82
2023/12/04 12:54:02;;;;;;;18.80;17.50;;;;;;;;;;5109084;28;20450;-82
2023/12/04 12:56:29;;;;;;;17.13;15.83;;;;;;;;;;5111161;28;20477;-82
2023/12/04 12:58:57;;;;;;;18.13;16.73;;;;;;;;;;5109912;28;20830;-82
2023/12/04 13:01:25;;;;;;;16.60;15.30;;;;;;;;;;5110711;28;20484;-83
2023/12/04 13:03:51;;;;;;;15.53;14.13;;;;;;;;;;5110372;28;20984;-82
2023/12/04 13:06:18;;;;;;;16.40;15.10;;;;;;;;;;5116763;28;20447;-82
2023/12/04 13:08:44;;;;;;;15.50;14.40;;;;;;;;;;5115526;28;20454;-82
2023/12/04 13:11:11;;;;;;;16.70;15.50;;;;;;;;;;5110938;28;20480;-82
2023/12/04 13:13:37;;;;;;;15.77;14.67;;;;;;;;;;5113339;28;20458;-81
2023/12/04 13:16:06;;;;;;;16.93;15.60;;;;;;;;;;5112757;28;20485;-81
2023/12/04 13:18:35;;;;;;;17.17;15.67;;;;;;;;;;5109932;28;20458;-81
2023/12/04 13:21:02;;;;;;;16.13;14.87;;;;;;;;;;5113591;28;20497;-82
2023/12/04 13:23:28;;;;;;;14.47;13.37;;;;;;;;;;5116334;28;20517;-82
2023/12/04 13:25:55;;;;;;;15.73;14.50;;;;;;;;;;5115504;28;20472;-82
2023/12/04 13:28:22;;;;;;;13.80;12.80;;;;;;;;;;5106412;28;21045;-82
2023/12/04 13:30:49;;;;;;;16.00;14.70;;;;;;;;;;5113638;28;20507;-82
2023/12/04 13:33:17;;;;;;;15.40;14.10;;;;;;;;;;5113202;28;20533;-82
2023/12/04 13:35:43;;;;;;;15.80;14.20;;;;;;;;;;5103862;28;20491;-81
2023/12/04 13:38:13;;;;;;;15.03;13.93;;;;;;;;;;5114995;28;20454;-81
2023/12/04 13:40:39;;;;;;;13.83;12.93;;;;;;;;;;5111280;28;20462;-82
2023/12/04 13:46:09;;;;;;;10.67;9.77;;;;;;;;;;5072242;28;20432;-81
2023/12/04 13:48:40;;;;;;;14.70;13.50;;;;;;;;;;5082084;28;20455;-80
2023/12/04 13:51:07;;;;;;;14.60;13.40;;;;;;;;;;5110824;28;20526;-81
2023/12/04 13:53:34;;;;;;;14.73;13.57;;;;;;;;;;5111526;28;21169;-81
2023/12/04 13:56:21;;;;;;;14.47;13.37;;;;;;;;;;5113993;28;20482;-81
2023/12/04 13:58:50;;;;;;;13.70;12.60;;;;;;;;;;5110610;28;20465;-82
2023/12/04 14:01:22;;;;;;;14.50;13.37;;;;;;;;;;5105904;28;20449;-82
2023/12/04 14:03:50;;;;;;;13.27;12.33;;;;;;;;;;5115441;28;20482;-82
2023/12/04 14:06:16;;;;;;;16.13;14.50;;;;;;;;;;5098351;28;20514;-82
2023/12/04 14:08:43;;;;;;;13.53;12.43;;;;;;;;;;5111165;28;20486;-82
2023/12/04 14:11:11;;;;;;;14.17;13.07;;;;;;;;;;5108547;28;20447;-81
2023/12/04 14:13:38;;;;;;;13.77;12.87;;;;;;;;;;5111681;28;20472;-81
2023/12/04 14:16:06;;;;;;;13.80;12.80;;;;;;;;;;5115362;28;20527;-81
2023/12/04 14:18:32;;;;;;;13.70;12.77;;;;;;;;;;5110167;28;20472;-80